地図

経路データ

SID SEASON NUMBER BASIN SUBBASIN NAME ISO_TIME NATURE LAT LON WMO_WIND WMO_PRES WMO_AGENCY TRACK_TYPE DIST2LAND LANDFALL IFLAG USA_AGENCY USA_ATCF_ID USA_LAT USA_LON USA_RECORD USA_STATUS USA_WIND USA_PRES USA_SSHS USA_R34_NE USA_R34_SE USA_R34_SW USA_R34_NW USA_R50_NE USA_R50_SE USA_R50_SW USA_R50_NW USA_R64_NE USA_R64_SE USA_R64_SW USA_R64_NW USA_POCI USA_ROCI USA_RMW USA_EYE TOKYO_LAT TOKYO_LON TOKYO_GRADE TOKYO_WIND TOKYO_PRES TOKYO_R50_DIR TOKYO_R50_LONG TOKYO_R50_SHORT TOKYO_R30_DIR TOKYO_R30_LONG TOKYO_R30_SHORT TOKYO_LAND CMA_LAT CMA_LON CMA_CAT CMA_WIND CMA_PRES HKO_LAT HKO_LON HKO_CAT HKO_WIND HKO_PRES NEWDELHI_LAT NEWDELHI_LON NEWDELHI_GRADE NEWDELHI_WIND NEWDELHI_PRES NEWDELHI_CI NEWDELHI_DP NEWDELHI_POCI REUNION_LAT REUNION_LON REUNION_TYPE REUNION_WIND REUNION_PRES REUNION_TNUM REUNION_CI REUNION_RMW REUNION_R34_NE REUNION_R34_SE REUNION_R34_SW REUNION_R34_NW REUNION_R50_NE REUNION_R50_SE REUNION_R50_SW REUNION_R50_NW REUNION_R64_NE REUNION_R64_SE REUNION_R64_SW REUNION_R64_NW BOM_LAT BOM_LON BOM_TYPE BOM_WIND BOM_PRES BOM_TNUM BOM_CI BOM_RMW BOM_R34_NE BOM_R34_SE BOM_R34_SW BOM_R34_NW BOM_R50_NE BOM_R50_SE BOM_R50_SW BOM_R50_NW BOM_R64_NE BOM_R64_SE BOM_R64_SW BOM_R64_NW BOM_ROCI BOM_POCI BOM_EYE BOM_POS_METHOD BOM_PRES_METHOD NADI_LAT NADI_LON NADI_CAT NADI_WIND NADI_PRES WELLINGTON_LAT WELLINGTON_LON WELLINGTON_WIND WELLINGTON_PRES DS824_LAT DS824_LON DS824_STAGE DS824_WIND DS824_PRES TD9636_LAT TD9636_LON TD9636_STAGE TD9636_WIND TD9636_PRES TD9635_LAT TD9635_LON TD9635_WIND TD9635_PRES TD9635_ROCI NEUMANN_LAT NEUMANN_LON NEUMANN_CLASS NEUMANN_WIND NEUMANN_PRES MLC_LAT MLC_LON MLC_CLASS MLC_WIND MLC_PRES USA_GUST BOM_GUST BOM_GUST_PER REUNION_GUST REUNION_GUST_PER USA_SEAHGT USA_SEARAD_NE USA_SEARAD_SE USA_SEARAD_SW USA_SEARAD_NW STORM_SPEED STORM_DIR
1933318N09092 1933 75 NI BB NOT_NAMED 1933-11-14 00:00:00 TS 9.40000 92.4000 main 526 526 _________O____ -1 9.40000 92.4000 TC 30 3 267
1933318N09092 1933 75 NI BB NOT_NAMED 1933-11-14 03:00:00 TS 9.39335 92.2667 main 532 532 _________PO___ -1 9.39002 92.2000 TC 30 9.40000 92.4000 1 3 272
1933318N09092 1933 75 NI BB NOT_NAMED 1933-11-14 06:00:00 TS 9.41070 92.0750 main 546 546 _________OP___ -1 9.40000 92.0000 TC 30 9.42674 92.1876 1 4 278
1933318N09092 1933 75 NI BB NOT_NAMED 1933-11-14 09:00:00 TS 9.44688 91.8772 main 560 560 _________PP___ -1 9.44249 91.8000 TC 30 9.45272 91.9801 1 4 282
1933318N09092 1933 75 NI BB NOT_NAMED 1933-11-14 12:00:00 TS 9.48867 91.6913 main 583 583 _________OP___ -1 9.50000 91.6000 TC 30 9.47735 91.7826 1 4 282
1933318N09092 1933 75 NI BB NOT_NAMED 1933-11-14 15:00:00 TS 9.52874 91.5000 main 597 597 _________PO___ -1 9.55749 91.4000 TC 31 9.50000 91.6000 1 4 281
1933318N09092 1933 75 NI BB NOT_NAMED 1933-11-14 18:00:00 TS 9.56037 91.3162 main 621 621 _________OP___ -1 9.60000 91.2000 TC 32 9.52074 91.4324 1 4 277
1933318N09092 1933 75 NI BB NOT_NAMED 1933-11-14 21:00:00 TS 9.57105 91.1449 main 636 636 _________PP___ -1 9.59992 91.0300 TC 33 9.54218 91.2599 1 4 274
1933318N09092 1933 75 NI BB NOT_NAMED 1933-11-15 00:00:00 TS 9.58377 90.9287 main 652 652 _________OP___ -1 9.60000 90.8000 TC 34 9.56754 91.0574 1 5 275
1933318N09092 1933 75 NI BB NOT_NAMED 1933-11-15 03:00:00 TS 9.62127 90.6150 main 676 676 _________PO___ -1 9.64254 90.4300 TC 36 9.60000 90.8000 2 7 277
1933318N09092 1933 75 NI BB NOT_NAMED 1933-11-15 06:00:00 TS 9.66737 90.2328 main 717 717 _________OP___ -1 9.70000 90.0000 TC 39 9.63474 90.4655 2 8 277
1933318N09092 1933 75 NI BB NOT_NAMED 1933-11-15 09:00:00 TS 9.70999 89.8412 main 752 752 _________PP___ -1 9.74243 89.6075 TC 42 9.67755 90.0749 2 8 277
1933318N09092 1933 75 NI BB NOT_NAMED 1933-11-15 12:00:00 TS 9.76578 89.4234 main 794 794 _________OP___ -1 9.80000 89.2000 TC 45 9.73156 89.6467 2 9 279
1933318N09092 1933 75 NI BB NOT_NAMED 1933-11-15 15:00:00 TS 9.84624 88.9788 main 829 791 _________PO___ -1 9.89247 88.7575 TC 45 9.80000 89.2000 3 9 280
1933318N09092 1933 75 NI BB NOT_NAMED 1933-11-15 18:00:00 TS 9.91834 88.5380 main 780 743 _________OP___ -1 10.0000 88.3000 TC 45 9.83669 88.7760 3 9 279
1933318N09092 1933 75 NI BB NOT_NAMED 1933-11-15 21:00:00 TS 9.97854 88.1006 main 743 706 _________PP___ -1 10.0624 87.8648 TC 45 9.89471 88.3365 3 9 282
1933318N09092 1933 75 NI BB NOT_NAMED 1933-11-16 00:00:00 TS 10.1027 87.6394 main 696 666 _________OP___ -1 10.2000 87.4000 TC 45 10.0054 87.8789 3 10 291
1933318N09092 1933 75 NI BB NOT_NAMED 1933-11-16 03:00:00 TS 10.3488 87.1288 main 656 626 _________PO___ -1 10.4975 86.8575 TC 45 10.2000 87.4000 3 12 300
1933318N09092 1933 75 NI BB NOT_NAMED 1933-11-16 06:00:00 TS 10.6988 86.5963 main 626 597 _________OP___ -1 10.9000 86.3000 TC 45 10.4975 86.8926 3 13 306
1933318N09092 1933 75 NI BB NOT_NAMED 1933-11-16 09:00:00 TS 11.1037 86.0787 main 597 575 _________PP___ -1 11.3274 85.7924 TC 45 10.8800 86.3650 3 13 310
1933318N09092 1933 75 NI BB NOT_NAMED 1933-11-16 12:00:00 TS 11.5612 85.5649 main 581 535 _________OP___ -1 11.8000 85.3000 TC 45 11.3225 85.8298 3 14 313
1933318N09092 1933 75 NI BB NOT_NAMED 1933-11-16 15:00:00 TS 12.0462 85.0499 main 524 474 _________PO___ -1 12.2924 84.7999 TC 49 11.8000 85.3000 3 14 314
1933318N09092 1933 75 NI BB NOT_NAMED 1933-11-16 18:00:00 TS 12.5094 84.5774 main 474 413 _________OP___ -1 12.8000 84.3000 TC 54 12.2914 84.7854 3 13 315
1933318N09092 1933 75 NI BB NOT_NAMED 1933-11-16 21:00:00 TS 12.9953 84.0905 main 413 357 _________PP___ -1 13.3027 83.8004 TC 59 12.7905 84.2839 3 13 316
1933318N09092 1933 75 NI BB NOT_NAMED 1933-11-17 00:00:00 TS 13.4629 83.6270 main 357 324 _________OP___ -1 13.8000 83.3000 TC 64 13.2943 83.7905 3 11 316
1933318N09092 1933 75 NI BB NOT_NAMED 1933-11-17 03:00:00 NR 13.8000 83.3000 main 324 __________O___ -1 TC 13.8000 83.3000 4 9 317

IBTrACS Databaseについて

本データベースは、米国NOAAが公開する1842年以降の世界の熱帯低気圧のベストトラックデータアーカイブInternational Best Track Archive for Climate Stewardship (IBTrACS)を、ウェブで閲覧しやすい形式に変換したものです。

最終更新日:2021-12-03